Time;durP1;ratioP1;P1;durP2;ratioP2;P2;SDS_P1;SDS_P2;PMS_P1;PMS_P2;Temp;Humidity;BMP_temperature;BMP_pressure;BME280_temperature;BME280_humidity;BME280_pressure;Samples;Min_cycle;Max_cycle;Signal;HPM_P1;HPM_P2
2022/01/29 00:00:17;;;;;;;15.02;13.52;;;;;;;3.51;77.85;100281.97;4092202;28;20669;-52
2022/01/29 00:02:19;;;;;;;16.13;14.43;;;;;;;3.45;77.59;100278.06;4109669;28;20234;-53
2022/01/29 00:04:21;;;;;;;14.57;13.07;;;;;;;3.49;78.04;100284.88;4111375;28;20685;-53
2022/01/29 00:06:23;;;;;;;14.18;12.68;;;;;;;3.50;77.63;100283.84;4107942;28;20206;-53
2022/01/29 00:08:26;;;;;;;19.90;14.13;;;;;;;3.46;77.30;100268.94;4092385;28;20207;-53
2022/01/29 00:10:27;;;;;;;15.40;13.13;;;;;;;3.47;77.74;100265.22;4095907;28;20295;-53
2022/01/29 00:12:30;;;;;;;13.73;12.45;;;;;;;3.45;77.72;100269.94;4095696;28;20612;-53
2022/01/29 00:14:31;;;;;;;17.52;14.65;;;;;;;3.45;77.26;100256.41;4112977;28;20358;-53
2022/01/29 00:16:34;;;;;;;14.45;13.18;;;;;;;3.45;77.53;100256.41;4111062;28;20214;-53
2022/01/29 00:18:35;;;;;;;15.35;13.00;;;;;;;3.46;77.85;100241.88;4109603;28;20206;-54
2022/01/29 00:20:37;;;;;;;15.57;14.00;;;;;;;3.34;78.08;100237.75;4094533;28;20306;-54
2022/01/29 00:22:40;;;;;;;15.10;11.98;;;;;;;3.37;78.48;100228.47;4098154;28;20632;-53
2022/01/29 00:24:43;;;;;;;15.98;12.38;;;;;;;3.32;78.10;100233.50;4095581;28;20237;-53
2022/01/29 00:26:45;;;;;;;19.58;12.20;;;;;;;3.33;78.00;100230.66;4093685;28;20602;-53
2022/01/29 00:28:47;;;;;;;19.08;14.20;;;;;;;3.20;78.52;100226.72;4096514;28;20303;-53
2022/01/29 00:30:48;;;;;;;22.45;12.30;;;;;;;3.21;79.02;100228.41;4111700;28;20233;-53
2022/01/29 00:32:50;;;;;;;17.67;11.98;;;;;;;3.20;79.04;100214.03;4095573;28;20805;-53
2022/01/29 00:34:53;;;;;;;18.63;13.32;;;;;;;3.20;79.03;100211.31;4109609;28;20733;-53
2022/01/29 00:36:55;;;;;;;18.20;12.93;;;;;;;3.21;79.07;100213.00;4092843;28;20302;-54
2022/01/29 00:38:57;;;;;;;15.52;13.25;;;;;;;3.24;79.23;100199.19;4094546;28;20246;-54
2022/01/29 00:40:58;;;;;;;18.42;14.00;;;;;;;3.31;78.88;100208.34;4092242;28;20204;-54
2022/01/29 00:43:00;;;;;;;16.15;13.52;;;;;;;3.22;78.91;100203.91;4096211;28;21729;-52
2022/01/29 00:45:08;;;;;;;14.07;12.55;;;;;;;3.24;78.57;100201.88;4111821;28;20215;-54
2022/01/29 00:47:11;;;;;;;20.80;12.35;;;;;;;3.19;78.64;100195.25;4091368;28;20628;-54
2022/01/29 00:49:13;;;;;;;16.23;12.18;;;;;;;3.17;78.54;100192.72;4112272;28;20206;-53
2022/01/29 00:51:15;;;;;;;20.55;12.30;;;;;;;3.14;79.21;100189.50;4113790;28;20203;-54
2022/01/29 00:53:17;;;;;;;14.73;13.30;;;;;;;3.20;78.56;100183.44;4097919;28;20269;-53
2022/01/29 00:55:19;;;;;;;14.60;13.15;;;;;;;3.20;78.68;100175.34;4112765;28;20290;-53
2022/01/29 00:57:20;;;;;;;14.25;11.77;;;;;;;3.27;78.85;100174.50;4114692;28;20265;-53
2022/01/29 00:59:22;;;;;;;17.50;12.18;;;;;;;3.22;78.59;100176.88;4109052;28;20658;-53
2022/01/29 01:01:24;;;;;;;17.15;13.38;;;;;;;3.30;78.20;100176.03;4078154;29;20690;-54
2022/01/29 01:03:26;;;;;;;13.07;11.70;;;;;;;3.29;77.79;100175.19;4108544;28;21535;-53
2022/01/29 01:05:28;;;;;;;20.23;12.07;;;;;;;3.22;78.00;100173.31;4093848;28;20675;-54
2022/01/29 01:07:30;;;;;;;13.30;12.00;;;;;;;3.17;77.89;100181.91;4112001;28;20270;-54
2022/01/29 01:09:32;;;;;;;16.60;12.07;;;;;;;3.16;77.79;100174.81;4092404;28;20625;-54
2022/01/29 01:11:33;;;;;;;15.05;12.43;;;;;;;3.16;77.98;100180.22;4095773;28;20263;-53
2022/01/29 01:13:35;;;;;;;12.68;11.25;;;;;;;3.16;78.52;100180.22;4111459;28;20218;-53
2022/01/29 01:15:37;;;;;;;14.95;12.23;;;;;;;3.31;77.76;100184.00;4094369;28;20558;-53
2022/01/29 01:17:39;;;;;;;12.05;10.85;;;;;;;3.34;78.14;100180.13;4111603;28;20725;-53
2022/01/29 01:19:41;;;;;;;12.40;11.30;;;;;;;3.24;78.15;100180.25;4112211;28;20217;-55
2022/01/29 01:21:44;;;;;;;13.00;11.70;;;;;;;3.23;78.24;100175.84;4110121;28;20230;-53
2022/01/29 01:23:45;;;;;;;14.10;9.88;;;;;;;3.28;77.77;100170.78;4094617;28;20309;-53
2022/01/29 01:25:47;;;;;;;12.45;11.20;;;;;;;3.19;78.01;100173.63;4110824;28;20219;-54
2022/01/29 01:27:50;;;;;;;12.93;11.77;;;;;;;3.17;77.78;100171.09;4110280;28;20276;-52
2022/01/29 01:29:52;;;;;;;12.55;11.32;;;;;;;3.19;77.94;100174.47;4107513;28;20664;-52
2022/01/29 01:31:55;;;;;;;12.57;11.27;;;;;;;3.17;77.89;100175.63;4105242;28;20297;-52
2022/01/29 01:33:56;;;;;;;13.93;11.52;;;;;;;3.21;77.84;100167.03;4107732;28;20226;-54
2022/01/29 01:36:02;;;;;;;13.40;11.60;;;;;;;3.14;77.73;100176.81;4108135;28;20285;-52
2022/01/29 01:40:16;;;;;;;27.27;14.15;;;;;;;3.06;78.56;100168.66;4091676;28;20310;-52
2022/01/29 01:42:18;;;;;;;13.23;11.75;;;;;;;3.07;78.18;100173.06;4103085;28;20233;-53
2022/01/29 01:44:20;;;;;;;13.70;12.40;;;;;;;3.04;78.36;100180.66;4106884;28;20211;-54
2022/01/29 01:46:22;;;;;;;15.70;13.75;;;;;;;3.03;78.72;100185.22;4090875;28;20250;-52
2022/01/29 01:48:23;;;;;;;19.10;12.13;;;;;;;3.07;77.91;100175.75;4094235;28;20290;-52
2022/01/29 01:50:25;;;;;;;13.73;12.43;;;;;;;3.08;78.42;100171.22;4107260;28;20231;-52
2022/01/29 01:52:27;;;;;;;14.68;13.13;;;;;;;3.11;77.99;100169.03;4091010;28;20698;-52
2022/01/29 01:54:29;;;;;;;13.95;12.60;;;;;;;3.11;77.83;100174.44;4092041;28;20208;-52
2022/01/29 01:56:31;;;;;;;19.60;12.60;;;;;;;3.10;77.99;100170.06;4092649;28;20310;-53
2022/01/29 01:58:33;;;;;;;14.13;12.65;;;;;;;3.14;77.88;100155.19;4104874;28;20211;-52
2022/01/29 02:00:35;;;;;;;18.35;13.55;;;;;;;3.11;77.91;100160.94;4068388;29;20216;-53
2022/01/29 02:02:37;;;;;;;13.27;11.95;;;;;;;3.21;77.62;100160.78;4106788;28;20241;-53
2022/01/29 02:04:39;;;;;;;15.98;13.15;;;;;;;3.20;77.94;100154.53;4085920;28;20215;-52
2022/01/29 02:06:40;;;;;;;14.90;11.63;;;;;;;3.17;77.64;100143.19;4085434;28;20235;-52
2022/01/29 02:08:42;;;;;;;13.93;12.63;;;;;;;3.23;77.73;100139.84;4103155;28;20238;-52
2022/01/29 02:10:48;;;;;;;17.00;13.63;;;;;;;3.20;77.43;100137.47;4105499;28;20298;-52
2022/01/29 02:13:00;;;;;;;20.30;12.90;;;;;;;3.19;77.43;100141.16;4090872;28;21033;-54
2022/01/29 02:15:05;;;;;;;15.32;12.35;;;;;;;3.25;78.17;100135.97;4104808;28;20242;-52
2022/01/29 02:17:08;;;;;;;14.98;12.48;;;;;;;3.22;77.67;100125.47;4093388;28;20213;-53
2022/01/29 02:19:10;;;;;;;18.02;13.23;;;;;;;3.25;77.44;100122.44;4112220;28;20241;-53
2022/01/29 02:21:11;;;;;;;12.50;11.30;;;;;;;3.36;77.12;100116.72;4093787;28;20349;-52
2022/01/29 02:23:13;;;;;;;15.32;13.85;;;;;;;3.23;77.14;100104.66;4108892;28;20632;-53
2022/01/29 02:25:48;;;;;;;22.75;12.80;;;;;;;3.27;77.25;100100.63;4103733;28;20297;-54
2022/01/29 02:27:50;;;;;;;14.52;12.85;;;;;;;3.22;77.38;100103.84;4036007;29;20265;-52
2022/01/29 02:29:51;;;;;;;14.77;13.07;;;;;;;3.13;77.90;100099.41;4090125;28;20611;-52
2022/01/29 02:31:57;;;;;;;13.85;12.45;;;;;;;3.23;77.65;100089.31;4091363;28;20239;-52
2022/01/29 02:33:59;;;;;;;14.98;13.55;;;;;;;3.16;77.62;100093.69;4088227;28;20629;-54
2022/01/29 02:36:02;;;;;;;22.90;14.05;;;;;;;3.06;77.64;100092.94;4109307;28;20257;-54
2022/01/29 02:38:03;;;;;;;15.60;13.25;;;;;;;3.06;78.28;100101.06;4090932;28;20264;-52
2022/01/29 02:40:06;;;;;;;19.23;13.95;;;;;;;3.10;77.86;100093.47;4089364;28;20752;-53
2022/01/29 02:42:08;;;;;;;16.85;14.35;;;;;;;3.06;78.20;100092.13;4109468;28;20233;-52
2022/01/29 02:44:14;;;;;;;15.98;14.32;;;;;;;3.02;78.37;100098.84;4110985;28;20257;-56
2022/01/29 02:48:22;;;;;;;15.52;13.68;;;;;;;3.10;77.96;100088.94;4097818;28;20631;-54
2022/01/29 02:50:24;;;;;;;13.32;11.95;;;;;;;3.06;77.81;100087.53;4095357;28;20196;-53
2022/01/29 02:52:26;;;;;;;14.82;13.27;;;;;;;3.05;77.82;100077.75;4112550;28;20592;-54
2022/01/29 02:54:28;;;;;;;13.45;11.98;;;;;;;2.98;78.16;100079.41;4115498;28;20253;-54
2022/01/29 02:56:29;;;;;;;27.33;14.82;;;;;;;2.92;78.54;100069.25;4110297;28;20346;-53
2022/01/29 02:58:31;;;;;;;17.90;14.50;;;;;;;3.00;78.46;100074.69;4113796;28;20210;-53
2022/01/29 03:00:33;;;;;;;17.00;14.98;;;;;;;2.97;78.73;100066.91;4092188;28;20215;-53
2022/01/29 03:02:35;;;;;;;15.18;13.50;;;;;;;2.99;78.15;100059.47;4074310;29;20267;-54
2022/01/29 03:04:37;;;;;;;19.70;13.45;;;;;;;3.00;78.15;100042.25;4111900;28;20795;-53
2022/01/29 03:06:38;;;;;;;16.60;13.73;;;;;;;2.99;78.47;100043.25;4090811;28;20350;-52
2022/01/29 03:08:40;;;;;;;26.08;14.35;;;;;;;2.99;79.02;100036.97;4111902;28;20312;-52
2022/01/29 03:10:42;;;;;;;18.98;13.57;;;;;;;2.97;78.85;100037.19;4094266;28;20211;-54
2022/01/29 03:12:43;;;;;;;16.65;15.05;;;;;;;2.90;79.16;100036.16;4109961;28;20227;-53
2022/01/29 03:14:45;;;;;;;21.13;14.68;;;;;;;2.91;79.43;100034.28;4093232;28;20244;-54
2022/01/29 03:16:47;;;;;;;12.85;11.35;;;;;;;2.95;79.07;100031.06;4108835;28;20445;-54
2022/01/29 03:18:48;;;;;;;20.70;12.98;;;;;;;2.87;79.45;100028.34;4100282;28;20234;-53
2022/01/29 03:20:50;;;;;;;19.80;13.95;;;;;;;2.91;79.36;100026.16;4094261;28;20211;-53
2022/01/29 03:22:52;;;;;;;24.83;14.15;;;;;;;2.88;79.29;100019.22;4094487;28;20254;-54
2022/01/29 03:24:54;;;;;;;16.58;14.82;;;;;;;2.91;79.55;100018.91;4108995;28;20823;-53
2022/01/29 03:26:55;;;;;;;18.95;15.85;;;;;;;2.95;78.81;100014.03;4098518;28;20228;-54
2022/01/29 03:28:57;;;;;;;21.58;14.70;;;;;;;2.93;79.21;100006.06;4091383;28;20231;-54
2022/01/29 03:30:59;;;;;;;16.65;13.13;;;;;;;2.89;79.43;99999.31;4092925;28;20286;-54
2022/01/29 03:33:00;;;;;;;16.65;14.25;;;;;;;2.93;79.39;100006.06;4093036;28;20759;-52
2022/01/29 03:35:03;;;;;;;16.65;14.93;;;;;;;2.93;79.53;100006.06;4104174;28;20642;-53
2022/01/29 03:37:05;;;;;;;19.25;13.07;;;;;;;2.93;79.30;99995.25;4105558;28;20195;-53
2022/01/29 03:39:06;;;;;;;16.80;15.10;;;;;;;2.91;79.15;99989.16;4091273;28;20254;-52
2022/01/29 03:41:10;;;;;;;17.75;15.23;;;;;;;2.91;79.24;99986.47;4072303;29;20733;-53
2022/01/29 03:43:14;;;;;;;14.25;12.75;;;;;;;2.91;79.02;99975.66;4086748;28;20233;-55
2022/01/29 03:45:19;;;;;;;19.77;14.55;;;;;;;2.87;79.46;99974.28;4087435;28;20300;-53
2022/01/29 03:47:21;;;;;;;18.73;13.90;;;;;;;2.91;79.00;99964.84;4105764;28;20213;-52
2022/01/29 03:49:22;;;;;;;14.20;11.65;;;;;;;2.88;79.38;99969.75;4090117;28;20211;-53
2022/01/29 03:51:24;;;;;;;20.83;15.25;;;;;;;2.89;79.33;99969.59;4093557;28;20657;-53
2022/01/29 03:53:26;;;;;;;15.55;13.90;;;;;;;2.84;79.84;99969.22;4092152;28;20314;-52
2022/01/29 03:55:27;;;;;;;15.75;13.52;;;;;;;2.88;79.63;99977.84;4107738;28;20322;-54
2022/01/29 03:57:29;;;;;;;17.27;13.60;;;;;;;2.85;79.74;99976.31;4103028;28;20300;-54
2022/01/29 03:59:31;;;;;;;19.17;13.40;;;;;;;2.90;79.58;99978.53;4089578;28;20681;-53
2022/01/29 04:01:32;;;;;;;18.88;13.82;;;;;;;2.91;79.60;99978.34;4096513;28;20207;-52
2022/01/29 04:03:34;;;;;;;15.52;13.75;;;;;;;2.87;79.20;99976.97;4088984;28;20235;-54
2022/01/29 04:05:36;;;;;;;17.88;12.52;;;;;;;2.87;79.59;99981.56;4093444;28;20361;-53
2022/01/29 04:07:40;;;;;;;21.77;14.18;;;;;;;2.91;79.75;99978.34;4105589;28;20222;-54
2022/01/29 04:09:48;;;;;;;14.30;12.90;;;;;;;2.93;79.35;99976.31;4108553;28;20202;-52
2022/01/29 04:11:49;;;;;;;14.48;12.23;;;;;;;2.86;79.47;99975.31;4089250;28;20215;-54
2022/01/29 04:13:51;;;;;;;14.80;12.82;;;;;;;2.88;79.05;99973.28;4105967;28;20215;-52
2022/01/29 04:15:53;;;;;;;20.88;13.63;;;;;;;2.80;79.60;99978.66;4091368;28;20214;-53
2022/01/29 04:17:54;;;;;;;16.15;12.32;;;;;;;2.86;79.63;99998.81;4091798;28;20555;-55
2022/01/29 04:19:56;;;;;;;15.52;13.82;;;;;;;2.87;78.96;99995.91;4092628;28;20214;-54
2022/01/29 04:21:59;;;;;;;15.02;11.52;;;;;;;2.86;79.35;99999.63;4097523;28;20578;-53
2022/01/29 04:24:03;;;;;;;16.65;11.30;;;;;;;2.93;78.99;99999.84;4095070;28;20212;-54
2022/01/29 04:26:05;;;;;;;17.55;12.57;;;;;;;3.02;79.21;99999.66;4104988;28;20262;-54
2022/01/29 04:28:10;;;;;;;18.48;12.77;;;;;;;3.07;79.00;100010.00;4106083;28;20688;-55
2022/01/29 04:30:27;;;;;;;15.10;11.27;;;;;;;3.11;78.34;100009.50;4090804;28;20247;-54
2022/01/29 04:34:53;;;;;;;13.90;10.95;;;;;;;2.99;78.75;99989.19;4066705;28;20700;-52
2022/01/29 04:36:55;;;;;;;12.55;11.00;;;;;;;3.01;78.42;99997.97;4075992;29;20236;-54
2022/01/29 04:38:59;;;;;;;10.30;9.30;;;;;;;3.07;78.34;99981.06;4089341;28;20636;-55
2022/01/29 04:41:03;;;;;;;11.55;10.35;;;;;;;3.04;78.12;99965.22;4089055;28;20662;-52
2022/01/29 04:43:05;;;;;;;15.32;10.73;;;;;;;3.01;78.17;99953.88;4090230;28;20332;-53
2022/01/29 04:45:08;;;;;;;12.60;11.40;;;;;;;3.03;78.63;99952.69;4109251;28;20562;-53
2022/01/29 04:47:09;;;;;;;12.82;11.13;;;;;;;3.03;78.45;99962.66;4109027;28;20285;-53
2022/01/29 04:49:11;;;;;;;13.73;10.65;;;;;;;3.01;78.69;99965.53;4091698;28;20307;-53
2022/01/29 04:51:13;;;;;;;11.80;10.60;;;;;;;3.02;78.72;99988.84;4093021;28;20234;-53
2022/01/29 04:53:14;;;;;;;15.90;12.18;;;;;;;3.10;77.93;99969.94;4093132;28;20237;-53
2022/01/29 04:55:16;;;;;;;12.23;11.18;;;;;;;3.02;78.53;99956.41;4097529;28;20210;-54
2022/01/29 04:57:18;;;;;;;12.10;10.68;;;;;;;3.01;78.52;99970.94;4109852;28;20536;-53
2022/01/29 04:59:20;;;;;;;10.50;9.60;;;;;;;3.05;78.08;99961.47;4108711;28;20241;-53
2022/01/29 05:01:22;;;;;;;12.57;10.88;;;;;;;3.04;78.05;99976.03;4090702;28;20313;-53
2022/01/29 05:03:23;;;;;;;12.88;10.95;;;;;;;3.09;78.20;99972.81;4102871;28;20461;-55
2022/01/29 05:05:26;;;;;;;11.52;10.38;;;;;;;3.04;78.11;99976.03;4089089;28;20919;-52
2022/01/29 05:07:29;;;;;;;12.95;11.65;;;;;;;3.05;78.82;99961.47;4088830;28;20225;-52
2022/01/29 05:09:31;;;;;;;12.15;10.80;;;;;;;3.00;78.94;99957.59;4105022;28;20233;-53
2022/01/29 05:11:32;;;;;;;26.30;12.57;;;;;;;2.94;78.72;99959.09;4106773;28;20198;-52
2022/01/29 05:13:37;;;;;;;13.32;11.98;;;;;;;3.03;78.71;99952.69;4088810;28;20821;-52
2022/01/29 05:15:56;;;;;;;14.38;12.77;;;;;;;3.00;79.00;99946.78;4090893;28;20214;-52
2022/01/29 05:27:19;;;;;;;12.52;11.23;;;;;;;2.91;79.23;99951.31;4092961;28;20282;-54
2022/01/29 05:29:21;;;;;;;15.15;13.75;;;;;;;2.93;79.35;99952.00;4107274;28;20210;-53
2022/01/29 05:31:23;;;;;;;20.58;12.75;;;;;;;2.97;79.38;99963.31;4075831;29;20212;-52
2022/01/29 05:33:25;;;;;;;18.10;13.55;;;;;;;2.89;79.93;99966.03;4105262;28;20783;-53
2022/01/29 05:35:27;;;;;;;14.02;12.13;;;;;;;2.82;80.15;99973.94;4104760;28;20271;-53
2022/01/29 05:37:28;;;;;;;14.93;12.43;;;;;;;2.84;79.66;99977.34;4104785;28;20325;-53
2022/01/29 05:39:31;;;;;;;14.43;12.95;;;;;;;2.78;80.05;99972.59;4092364;28;20319;-54
2022/01/29 05:41:33;;;;;;;16.33;12.30;;;;;;;2.82;80.21;99967.69;4102866;28;20218;-55
2022/01/29 05:43:35;;;;;;;17.15;12.43;;;;;;;2.76;80.15;99971.91;4088369;28;20278;-53
2022/01/29 05:45:37;;;;;;;14.68;13.18;;;;;;;2.80;80.37;99969.72;4102897;28;20211;-53
2022/01/29 05:47:40;;;;;;;14.27;12.80;;;;;;;2.75;80.45;99967.50;4109768;28;20234;-53
2022/01/29 05:49:42;;;;;;;17.88;14.13;;;;;;;2.72;80.40;99967.84;4105731;28;20218;-54
2022/01/29 05:51:43;;;;;;;16.98;14.30;;;;;;;2.75;80.89;99964.78;4091435;28;20206;-55
2022/01/29 05:53:45;;;;;;;16.23;13.68;;;;;;;2.77;80.44;99968.19;4095765;28;20219;-52
2022/01/29 05:55:47;;;;;;;18.08;14.68;;;;;;;2.80;80.48;99973.25;4093929;28;20238;-52
2022/01/29 05:57:50;;;;;;;14.43;12.95;;;;;;;2.77;80.96;99979.00;4110031;28;20269;-52
2022/01/29 05:59:52;;;;;;;14.10;12.52;;;;;;;2.84;80.51;99982.75;4095306;28;20215;-54
2022/01/29 06:01:54;;;;;;;21.80;14.18;;;;;;;2.82;80.62;99979.34;4094334;28;20203;-53
2022/01/29 06:03:56;;;;;;;14.18;12.52;;;;;;;2.76;80.46;99982.72;4090308;28;20241;-53
2022/01/29 06:05:57;;;;;;;16.52;13.95;;;;;;;2.71;80.89;99979.66;4110766;28;20223;-54
2022/01/29 06:07:59;;;;;;;13.70;12.27;;;;;;;2.77;80.78;99976.31;4115883;28;20731;-55
2022/01/29 06:10:01;;;;;;;15.38;12.43;;;;;;;2.68;80.66;99974.56;4109768;28;20231;-54
2022/01/29 06:12:11;;;;;;;17.88;13.57;;;;;;;2.64;80.96;99977.78;4087918;28;20231;-53
2022/01/29 06:14:12;;;;;;;15.50;13.20;;;;;;;2.62;81.40;99991.44;4111229;28;21141;-53
2022/01/29 06:16:14;;;;;;;14.35;12.65;;;;;;;2.63;81.33;99976.94;4110491;28;20229;-53
2022/01/29 06:18:19;;;;;;;14.43;13.00;;;;;;;2.70;81.57;99986.09;4092226;28;20618;-53
2022/01/29 06:20:21;;;;;;;12.65;11.07;;;;;;;2.66;81.20;99976.59;4107523;28;20653;-53
2022/01/29 06:22:23;;;;;;;14.27;11.10;;;;;;;2.64;80.70;99962.41;4109665;28;20344;-54
2022/01/29 06:24:25;;;;;;;15.85;9.88;;;;;;;2.59;80.83;99948.53;4077164;29;20673;-53
2022/01/29 06:26:27;;;;;;;14.68;11.48;;;;;;;2.60;80.62;99950.25;4088695;28;20243;-52
2022/01/29 06:28:29;;;;;;;15.38;10.27;;;;;;;2.46;81.29;99942.75;4091851;28;20621;-52
2022/01/29 06:30:31;;;;;;;14.13;10.90;;;;;;;2.48;81.04;99948.84;4093277;28;20305;-52
2022/01/29 06:32:32;;;;;;;16.08;13.43;;;;;;;2.53;81.53;99942.97;4089549;28;21784;-52
2022/01/29 06:34:34;;;;;;;12.13;10.70;;;;;;;2.55;80.92;99946.34;4091144;28;20346;-53
2022/01/29 06:36:36;;;;;;;15.32;11.73;;;;;;;2.54;81.58;99950.88;4090169;28;20306;-53
2022/01/29 06:38:37;;;;;;;11.88;10.70;;;;;;;2.57;81.49;99950.59;4106485;28;20238;-52
2022/01/29 06:40:40;;;;;;;10.05;9.15;;;;;;;2.54;81.13;99955.47;4106318;28;20203;-52
2022/01/29 06:42:41;;;;;;;12.15;10.23;;;;;;;2.50;80.84;99945.97;4111530;28;20330;-52
2022/01/29 06:44:43;;;;;;;12.60;11.38;;;;;;;2.47;81.46;99949.84;4075270;28;20316;-52
2022/01/29 06:46:45;;;;;;;14.75;11.40;;;;;;;2.48;80.91;99951.53;4092880;28;20261;-53
2022/01/29 06:48:47;;;;;;;16.38;10.80;;;;;;;2.49;81.71;99949.69;4095258;28;20618;-54
2022/01/29 06:50:49;;;;;;;12.05;10.85;;;;;;;2.48;81.78;99951.53;4094234;28;20286;-53
2022/01/29 06:52:52;;;;;;;13.20;11.95;;;;;;;2.61;80.97;99954.63;4095173;28;20270;-53
2022/01/29 06:54:54;;;;;;;12.13;9.95;;;;;;;2.56;81.01;99954.28;4105266;28;20780;-52
2022/01/29 06:56:55;;;;;;;11.77;9.80;;;;;;;2.52;81.02;99961.03;4093421;28;20286;-53
2022/01/29 06:58:57;;;;;;;12.52;11.23;;;;;;;2.50;81.49;99952.25;4090119;28;20242;-54
2022/01/29 07:01:14;;;;;;;12.05;10.95;;;;;;;2.62;81.07;99964.41;4080169;28;20743;-53
2022/01/29 07:03:16;;;;;;;13.38;12.13;;;;;;;2.51;80.45;99962.03;4093287;28;20708;-53
2022/01/29 07:05:18;;;;;;;12.32;11.23;;;;;;;2.56;81.06;99970.50;4109812;28;20782;-52
2022/01/29 07:07:19;;;;;;;11.68;9.90;;;;;;;2.61;80.94;99960.03;4093765;28;20242;-54
2022/01/29 07:09:21;;;;;;;12.73;11.52;;;;;;;2.56;80.66;99969.66;4093003;28;20689;-53
2022/01/29 07:11:24;;;;;;;10.45;9.52;;;;;;;2.56;80.63;99965.09;4107503;28;20242;-54
2022/01/29 07:13:26;;;;;;;13.13;11.93;;;;;;;2.54;81.13;99964.41;4105479;28;20226;-53
2022/01/29 07:15:27;;;;;;;10.35;9.43;;;;;;;2.54;81.53;99963.56;4095062;28;20215;-54
2022/01/29 07:17:29;;;;;;;8.30;7.60;;;;;;;2.51;80.74;99967.44;4098179;28;20203;-53
2022/01/29 07:19:31;;;;;;;10.85;9.85;;;;;;;2.54;80.83;99966.28;4107049;28;20788;-53
2022/01/29 07:21:32;;;;;;;9.77;8.77;;;;;;;2.61;80.48;99968.13;4103820;28;20264;-52
2022/01/29 07:23:34;;;;;;;9.13;8.32;;;;;;;2.63;80.80;99966.13;4092176;28;20796;-52
2022/01/29 07:25:36;;;;;;;9.32;8.38;;;;;;;2.55;80.93;99968.78;4093671;28;20203;-52
2022/01/29 07:27:38;;;;;;;8.32;7.32;;;;;;;2.52;80.48;99958.31;4112774;28;20309;-52
2022/01/29 07:29:39;;;;;;;8.07;7.38;;;;;;;2.51;80.64;99956.63;4095302;28;20235;-52
2022/01/29 07:31:41;;;;;;;9.50;8.60;;;;;;;2.61;80.53;99961.91;4095834;28;20258;-52
2022/01/29 07:33:43;;;;;;;9.48;7.15;;;;;;;2.51;80.64;99959.34;4112841;28;20688;-52
2022/01/29 07:35:44;;;;;;;8.00;7.30;;;;;;;2.52;80.86;99952.06;4112411;28;20305;-52
2022/01/29 07:37:46;;;;;;;8.77;7.88;;;;;;;2.58;81.08;99946.88;4111263;28;20221;-52
2022/01/29 07:39:47;;;;;;;7.63;6.80;;;;;;;2.59;80.30;99948.53;4114607;28;20671;-52
2022/01/29 07:41:49;;;;;;;9.50;7.90;;;;;;;2.53;80.86;99949.22;4097552;28;20701;-52
2022/01/29 07:43:51;;;;;;;7.93;7.22;;;;;;;2.45;81.37;99951.88;4093142;28;20219;-52
2022/01/29 07:45:53;;;;;;;8.23;7.13;;;;;;;2.50;81.15;99949.53;4108512;28;20218;-52
2022/01/29 07:47:55;;;;;;;6.85;6.25;;;;;;;2.47;81.12;99944.44;4095180;28;20327;-54
2022/01/29 07:49:57;;;;;;;7.63;6.90;;;;;;;2.47;81.40;99944.44;4093945;28;20223;-55
2022/01/29 07:51:59;;;;;;;8.18;6.97;;;;;;;2.56;81.31;99938.09;4092857;28;20325;-52
2022/01/29 07:54:01;;;;;;;7.05;6.35;;;;;;;2.64;80.56;99921.88;4111863;28;20798;-53
2022/01/29 07:56:03;;;;;;;7.43;6.70;;;;;;;2.54;81.06;99931.97;4110172;28;20686;-52
2022/01/29 07:58:07;;;;;;;7.45;5.68;;;;;;;2.62;80.58;99942.81;4110168;28;20632;-52
2022/01/29 08:00:10;;;;;;;7.55;6.88;;;;;;;2.63;80.56;99928.31;4114189;28;20210;-53
2022/01/29 08:02:12;;;;;;;6.70;6.10;;;;;;;2.55;80.98;99930.97;4078377;29;20678;-52
2022/01/29 08:04:14;;;;;;;7.03;6.32;;;;;;;2.55;80.93;99928.25;4108489;28;20670;-52
2022/01/29 08:06:17;;;;;;;6.75;6.15;;;;;;;2.58;81.30;99919.84;4109955;28;20238;-53
2022/01/29 08:08:18;;;;;;;7.13;6.45;;;;;;;2.65;80.82;99928.97;4091711;28;20318;-54
2022/01/29 08:10:20;;;;;;;6.00;5.40;;;;;;;2.62;81.24;99921.19;4108937;28;20210;-54
2022/01/29 08:12:22;;;;;;;8.15;7.43;;;;;;;2.61;81.05;99924.91;4107343;28;20270;-53
2022/01/29 08:14:24;;;;;;;7.20;6.60;;;;;;;2.76;80.58;99917.88;4111909;28;20198;-52
2022/01/29 08:16:26;;;;;;;7.68;6.85;;;;;;;2.76;80.89;99917.88;4107049;28;20215;-52
2022/01/29 08:18:28;;;;;;;6.35;5.75;;;;;;;2.73;80.43;99910.06;4109575;28;20234;-52
2022/01/29 08:20:29;;;;;;;7.03;6.32;;;;;;;2.76;80.77;99912.47;4093524;28;20222;-52
2022/01/29 08:22:31;;;;;;;5.57;4.82;;;;;;;2.81;80.03;99904.69;4110769;28;20226;-51
2022/01/29 08:24:33;;;;;;;9.13;7.00;;;;;;;2.87;80.01;99898.59;4100716;28;20253;-52
2022/01/29 08:26:34;;;;;;;5.72;5.13;;;;;;;2.78;80.80;99907.72;4111182;28;20576;-52
2022/01/29 08:28:36;;;;;;;7.07;6.57;;;;;;;2.84;80.46;99909.75;4098785;28;20212;-52
2022/01/29 08:30:38;;;;;;;7.45;6.75;;;;;;;2.94;80.44;99915.84;4094116;28;20626;-52
2022/01/29 08:32:43;;;;;;;6.70;5.88;;;;;;;2.85;80.87;99916.84;4096840;28;20263;-52
2022/01/29 08:34:46;;;;;;;6.93;6.32;;;;;;;2.90;80.44;99914.50;4095495;28;20252;-53
2022/01/29 08:36:49;;;;;;;6.53;5.93;;;;;;;2.91;80.85;99916.19;4109188;28;20242;-52
2022/01/29 08:38:51;;;;;;;5.07;4.68;;;;;;;2.80;81.02;99897.59;4092460;28;20239;-54
2022/01/29 08:40:54;;;;;;;5.07;4.60;;;;;;;2.87;80.66;99904.00;4092521;28;20335;-52
2022/01/29 08:42:56;;;;;;;6.03;5.35;;;;;;;2.80;80.85;99902.16;4109412;28;20353;-51
2022/01/29 08:44:59;;;;;;;7.13;5.90;;;;;;;2.77;81.20;99903.34;4094205;28;20211;-53
2022/01/29 08:47:01;;;;;;;6.78;6.25;;;;;;;2.77;81.01;99897.94;4105874;28;20305;-52
2022/01/29 08:49:03;;;;;;;5.72;5.32;;;;;;;2.80;81.10;99900.28;4112849;28;20234;-52
2022/01/29 08:51:04;;;;;;;6.55;5.95;;;;;;;2.84;80.98;99898.94;4108430;28;20246;-52
2022/01/29 08:53:06;;;;;;;6.07;5.47;;;;;;;2.85;81.01;99900.63;4106271;28;20269;-52
2022/01/29 08:55:09;;;;;;;5.05;4.65;;;;;;;2.85;80.17;99899.78;4113117;28;20199;-53
2022/01/29 08:57:11;;;;;;;4.57;4.18;;;;;;;2.80;81.08;99903.00;4096616;28;20237;-53
2022/01/29 08:59:13;;;;;;;4.25;3.88;;;;;;;2.88;80.83;99894.06;4108042;28;20636;-53
2022/01/29 09:01:14;;;;;;;4.90;4.50;;;;;;;2.89;80.50;99907.41;4099279;28;20266;-53
2022/01/29 09:03:17;;;;;;;4.68;4.28;;;;;;;2.91;80.48;99905.38;4091516;28;20245;-54
2022/01/29 09:05:19;;;;;;;7.13;6.53;;;;;;;2.94;80.32;99898.78;4107991;28;20202;-53
2022/01/29 09:07:21;;;;;;;5.40;5.00;;;;;;;2.95;80.76;99904.00;4105125;28;20226;-54
2022/01/29 09:09:26;;;;;;;5.28;4.80;;;;;;;2.88;80.96;99916.50;4092974;28;20302;-53
2022/01/29 09:11:33;;;;;;;3.83;3.53;;;;;;;2.88;80.44;99905.69;4096178;28;20669;-53
2022/01/29 09:13:35;;;;;;;4.97;4.47;;;;;;;2.86;80.40;99902.31;4111158;28;20727;-53
2022/01/29 09:15:37;;;;;;;5.10;4.38;;;;;;;2.84;80.91;99898.94;4112305;28;20261;-53
2022/01/29 09:17:41;;;;;;;5.38;4.88;;;;;;;2.86;81.15;99905.03;4110822;28;20277;-53
2022/01/29 09:19:43;;;;;;;3.75;3.45;;;;;;;2.95;81.13;99906.72;4112457;28;20234;-55
2022/01/29 09:21:45;;;;;;;4.63;4.22;;;;;;;2.89;80.73;99902.00;4091779;28;20212;-52
2022/01/29 09:23:47;;;;;;;5.60;3.25;;;;;;;2.90;80.63;99901.00;4108872;28;20242;-54
2022/01/29 09:25:48;;;;;;;4.47;3.65;;;;;;;2.90;80.80;99903.69;4108005;28;20215;-53
2022/01/29 09:28:03;;;;;;;7.30;4.93;;;;;;;2.87;81.25;99890.50;4090993;28;20705;-52
2022/01/29 09:30:10;;;;;;;3.75;3.45;;;;;;;2.84;81.05;99898.09;4092704;28;20310;-54
2022/01/29 09:32:12;;;;;;;4.63;4.22;;;;;;;2.85;81.17;99897.94;4091900;28;20274;-52
2022/01/29 09:34:14;;;;;;;4.43;4.03;;;;;;;2.81;81.23;99893.88;4091268;28;20219;-53
2022/01/29 09:36:16;;;;;;;4.88;4.15;;;;;;;2.85;80.77;99897.06;4093850;28;21629;-52
2022/01/29 09:38:18;;;;;;;4.05;3.75;;;;;;;2.78;81.51;99896.91;4107753;28;20203;-53
2022/01/29 09:40:20;;;;;;;4.07;3.72;;;;;;;2.84;81.42;99903.50;4090169;28;20215;-53
2022/01/29 09:42:21;;;;;;;4.28;3.78;;;;;;;2.85;80.85;99884.41;4109133;28;20297;-58
2022/01/29 09:44:30;;;;;;;3.75;3.45;;;;;;;2.81;81.48;99883.06;4109212;28;20199;-52
2022/01/29 09:46:32;;;;;;;6.18;3.72;;;;;;;2.82;81.51;99879.34;4108613;28;21261;-52